createdAt,value
2019-04-09T00:02:09.716Z,9.51
2019-04-09T00:04:40.259Z,9.57
2019-04-09T00:07:10.345Z,9.59
2019-04-09T00:09:41.359Z,9.59
2019-04-09T00:12:11.991Z,9.60
2019-04-09T00:14:42.596Z,9.60
2019-04-09T00:17:13.372Z,9.65
2019-04-09T00:19:43.914Z,9.63
2019-04-09T00:22:14.629Z,9.69
2019-04-09T00:24:45.581Z,9.72
2019-04-09T00:27:16.323Z,9.75
2019-04-09T00:29:46.831Z,9.77
2019-04-09T00:32:18.439Z,9.79
2019-04-09T00:34:49.179Z,9.79
2019-04-09T00:37:20.674Z,9.78
2019-04-09T00:39:51.486Z,9.77
2019-04-09T00:42:22.041Z,9.75
2019-04-09T00:44:53.195Z,9.78
2019-04-09T00:47:24.219Z,9.84
2019-04-09T00:49:54.790Z,9.87
2019-04-09T00:52:26.473Z,9.89
2019-04-09T00:54:57.127Z,9.92
2019-04-09T00:57:27.632Z,9.95
2019-04-09T00:59:59.112Z,9.93
2019-04-09T01:02:32.369Z,9.91
2019-04-09T01:05:02.783Z,9.88
2019-04-09T01:07:33.377Z,9.89
2019-04-09T01:10:04.099Z,9.84
2019-04-09T01:12:34.733Z,9.90
2019-04-09T01:15:06.614Z,9.92
2019-04-09T01:17:38.075Z,9.94
2019-04-09T01:20:09.257Z,9.95
2019-04-09T01:22:41.350Z,9.96
2019-04-09T01:25:49.089Z,9.94
2019-04-09T01:28:53.588Z,9.87
2019-04-09T01:31:54.969Z,9.89
2019-04-09T01:34:48.094Z,9.93
2019-04-09T01:37:37.722Z,9.92
2019-04-09T01:40:34.154Z,9.95
2019-04-09T01:43:32.475Z,9.97
2019-04-09T01:46:24.610Z,9.99
2019-04-09T01:49:30.002Z,10.01
2019-04-09T01:52:18.266Z,9.95
2019-04-09T01:55:07.719Z,9.91
2019-04-09T01:58:00.261Z,9.84
2019-04-09T02:00:50.864Z,9.85
2019-04-09T02:03:31.978Z,9.89
2019-04-09T02:06:37.046Z,9.94
2019-04-09T02:09:32.380Z,9.97
2019-04-09T02:12:10.273Z,9.92
2019-04-09T02:15:12.559Z,9.91
2019-04-09T02:18:00.447Z,9.94
2019-04-09T02:20:59.797Z,9.96
2019-04-09T02:24:01.111Z,9.92
2019-04-09T02:27:05.620Z,9.95
2019-04-09T02:29:52.022Z,9.98
2019-04-09T02:32:40.575Z,9.98
2019-04-09T02:35:35.103Z,10.00
2019-04-09T02:38:26.139Z,9.99
2019-04-09T02:41:15.614Z,10.02
2019-04-09T02:44:15.681Z,10.02
2019-04-09T02:47:03.172Z,10.05
2019-04-09T02:49:39.367Z,10.08
2019-04-09T02:52:31.761Z,10.06
2019-04-09T02:55:19.933Z,10.06
2019-04-09T02:58:00.334Z,10.03
2019-04-09T03:00:52.666Z,10.06
2019-04-09T03:03:41.870Z,10.08
2019-04-09T03:06:25.785Z,10.12
2019-04-09T03:09:20.525Z,10.14
2019-04-09T03:12:18.956Z,10.15
2019-04-09T03:14:55.907Z,10.13
2019-04-09T03:17:54.420Z,10.14
2019-04-09T03:20:50.678Z,10.08
2019-04-09T03:23:31.263Z,10.07
2019-04-09T03:26:21.871Z,10.06
2019-04-09T03:29:14.549Z,10.09
2019-04-09T03:31:58.583Z,10.05
2019-04-09T03:34:53.086Z,10.04
2019-04-09T03:37:54.711Z,10.03
2019-04-09T03:40:47.196Z,10.06
2019-04-09T03:43:42.702Z,10.10
2019-04-09T03:46:20.769Z,10.09
2019-04-09T03:53:03.856Z,10.13
2019-04-09T03:59:39.068Z,10.16
2019-04-09T04:06:13.787Z,10.15
2019-04-09T04:13:02.344Z,10.20
2019-04-09T04:19:48.241Z,10.23
2019-04-09T04:26:34.740Z,10.19
2019-04-09T04:33:09.292Z,10.19
2019-04-09T04:39:53.245Z,10.23
2019-04-09T04:50:12.808Z,10.27
2019-04-09T04:56:54.331Z,10.25
2019-04-09T05:03:44.523Z,10.16
2019-04-09T05:10:32.290Z,9.98
2019-04-09T05:17:09.939Z,9.94
2019-04-09T05:23:56.241Z,9.81
2019-04-09T05:30:33.864Z,9.85
2019-04-09T05:37:33.155Z,9.73
2019-04-09T05:44:23.084Z,9.72
2019-04-09T05:50:46.001Z,9.82
2019-04-09T05:57:12.244Z,9.87
2019-04-09T06:03:59.643Z,9.92
2019-04-09T06:10:30.322Z,9.98
2019-04-09T06:17:01.085Z,9.96
2019-04-09T06:23:19.631Z,10.03
2019-04-09T06:29:38.355Z,10.09
2019-04-09T06:36:02.540Z,10.18
2019-04-09T06:42:52.705Z,10.24
2019-04-09T06:52:18.606Z,10.35
2019-04-09T06:58:54.515Z,10.42
2019-04-09T07:05:30.315Z,10.53
2019-04-09T07:12:09.377Z,10.63
2019-04-09T07:18:43.781Z,10.71
2019-04-09T07:25:23.929Z,10.77
2019-04-09T07:32:02.815Z,10.78
2019-04-09T07:38:41.948Z,10.89
2019-04-09T07:45:41.516Z,11.03
2019-04-09T07:48:30.067Z,11.12
2019-04-09T07:55:07.052Z,11.21
2019-04-09T08:01:53.968Z,11.37
2019-04-09T08:08:39.617Z,11.44
2019-04-09T08:14:46.949Z,11.52
2019-04-09T08:21:15.015Z,11.57
2019-04-09T08:27:52.975Z,11.66
2019-04-09T08:30:47.234Z,11.69
2019-04-09T08:37:24.569Z,11.75
2019-04-09T08:44:17.130Z,11.79
2019-04-09T08:54:55.592Z,11.91
2019-04-09T09:01:52.826Z,12.04
2019-04-09T09:07:52.806Z,12.17
2019-04-09T09:17:52.307Z,12.34
2019-04-09T09:24:37.434Z,12.42
2019-04-09T09:31:22.528Z,12.53
2019-04-09T09:38:04.953Z,12.73
2019-04-09T09:44:55.989Z,12.89
2019-04-09T09:55:12.960Z,13.04
2019-04-09T10:01:50.319Z,13.08
2019-04-09T10:08:31.146Z,13.21
2019-04-09T10:15:17.431Z,13.29
2019-04-09T10:21:49.761Z,13.37
2019-04-09T10:28:38.403Z,13.56
2019-04-09T10:35:35.784Z,13.77
2019-04-09T10:42:19.645Z,13.98
2019-04-09T10:49:02.813Z,14.04
2019-04-09T10:55:31.122Z,14.02
2019-04-09T11:02:33.687Z,14.00
2019-04-09T11:09:17.726Z,13.90
2019-04-09T11:16:00.739Z,14.00
2019-04-09T11:22:38.666Z,14.08
2019-04-09T11:29:10.274Z,14.15
2019-04-09T11:38:56.294Z,14.42
2019-04-09T11:41:37.476Z,14.47
2019-04-09T11:44:27.539Z,14.48
2019-04-09T11:47:27.357Z,14.57
2019-04-09T11:50:20.295Z,14.61
2019-04-09T11:52:57.917Z,14.67
2019-04-09T11:55:57.779Z,14.65
2019-04-09T11:58:50.886Z,14.71
2019-04-09T12:01:57.964Z,14.76
2019-04-09T12:04:54.171Z,14.82
2019-04-09T12:07:36.548Z,14.84
2019-04-09T12:10:25.973Z,14.84
2019-04-09T12:13:14.636Z,14.89
2019-04-09T12:16:02.731Z,14.94
2019-04-09T12:18:39.922Z,14.97
2019-04-09T12:21:22.059Z,15.01
2019-04-09T12:24:29.733Z,15.04
2019-04-09T12:27:26.382Z,15.07
2019-04-09T12:30:15.279Z,15.08
2019-04-09T12:33:06.646Z,15.15
2019-04-09T12:35:59.048Z,15.13
2019-04-09T12:38:47.462Z,15.21
2019-04-09T12:41:46.235Z,15.25
2019-04-09T12:44:40.281Z,15.28
2019-04-09T12:47:34.693Z,15.32
2019-04-09T12:50:25.055Z,15.37
2019-04-09T12:53:18.235Z,15.35
2019-04-09T12:56:08.986Z,15.28
2019-04-09T12:59:03.100Z,15.34
2019-04-09T13:01:55.300Z,15.38
2019-04-09T13:04:46.836Z,15.40
2019-04-09T13:07:34.143Z,15.41
2019-04-09T13:10:18.467Z,15.47
2019-04-09T13:13:08.639Z,15.51
2019-04-09T13:15:58.796Z,15.52
2019-04-09T13:18:51.168Z,15.51
2019-04-09T13:21:47.596Z,15.52
2019-04-09T13:24:39.086Z,15.53
2019-04-09T13:27:32.451Z,15.58
2019-04-09T13:30:21.539Z,15.55
2019-04-09T13:33:13.137Z,15.56
2019-04-09T13:36:11.282Z,15.44
2019-04-09T13:39:15.608Z,15.20
2019-04-09T13:42:08.771Z,15.09
2019-04-09T13:44:51.465Z,14.85
2019-04-09T13:47:35.280Z,14.86
2019-04-09T13:50:37.015Z,14.64
2019-04-09T13:53:08.738Z,14.65
2019-04-09T13:55:40.676Z,14.56
2019-04-09T13:58:12.086Z,14.61
2019-04-09T14:00:43.038Z,14.51
2019-04-09T14:03:42.394Z,14.51
2019-04-09T14:06:12.965Z,14.47
2019-04-09T14:08:45.556Z,14.53
2019-04-09T14:11:16.520Z,14.53
2019-04-09T14:13:47.958Z,14.48
2019-04-09T14:16:19.063Z,14.52
2019-04-09T14:18:49.644Z,14.59
2019-04-09T14:21:20.312Z,14.57
2019-04-09T14:23:50.892Z,14.47
2019-04-09T14:26:22.506Z,14.39
2019-04-09T14:28:54.425Z,14.37
2019-04-09T14:31:26.262Z,14.27
2019-04-09T14:33:57.646Z,14.24
2019-04-09T14:36:28.672Z,14.22
2019-04-09T14:38:59.995Z,14.22
2019-04-09T14:41:30.819Z,14.18
2019-04-09T14:44:01.540Z,14.10
2019-04-09T14:46:32.149Z,14.00
2019-04-09T14:49:03.632Z,13.90
2019-04-09T14:51:34.656Z,13.85
2019-04-09T14:54:06.287Z,13.75
2019-04-09T14:56:40.232Z,13.67
2019-04-09T14:59:09.609Z,13.65
2019-04-09T15:01:40.409Z,13.68
2019-04-09T15:04:11.099Z,13.63
2019-04-09T15:06:41.761Z,13.66
2019-04-09T15:09:12.745Z,13.64
2019-04-09T15:11:44.041Z,13.63
2019-04-09T15:14:15.491Z,13.63
2019-04-09T15:16:46.868Z,13.67
2019-04-09T15:19:17.809Z,13.65
2019-04-09T15:22:10.440Z,13.73
2019-04-09T15:24:42.182Z,13.81
2019-04-09T15:27:13.165Z,13.76
2019-04-09T15:29:44.112Z,13.80
2019-04-09T15:32:17.049Z,13.84
2019-04-09T15:34:47.819Z,13.82
2019-04-09T15:37:19.208Z,13.91
2019-04-09T15:39:50.230Z,13.90
2019-04-09T15:42:21.479Z,14.00
2019-04-09T15:44:52.644Z,14.06
2019-04-09T15:47:23.314Z,14.10
2019-04-09T15:49:54.660Z,14.14
2019-04-09T15:52:25.918Z,14.19
2019-04-09T15:54:57.041Z,14.16
2019-04-09T15:57:27.863Z,14.16
2019-04-09T15:59:59.485Z,14.18
2019-04-09T16:02:30.339Z,14.16
2019-04-09T16:05:01.078Z,14.10
2019-04-09T16:07:31.714Z,14.07
2019-04-09T16:10:02.319Z,14.08
2019-04-09T16:12:32.908Z,14.04
2019-04-09T16:15:06.242Z,14.01
2019-04-09T16:17:35.819Z,14.02
2019-04-09T16:20:07.035Z,13.97
2019-04-09T16:22:38.249Z,13.89
2019-04-09T16:25:09.744Z,13.79
2019-04-09T16:27:40.506Z,13.74
2019-04-09T16:30:11.354Z,13.71
2019-04-09T16:32:42.058Z,13.68
2019-04-09T16:35:12.775Z,13.69
2019-04-09T16:37:43.667Z,13.77
2019-04-09T16:40:14.967Z,13.77
2019-04-09T16:42:46.877Z,13.72
2019-04-09T16:45:19.582Z,13.75
2019-04-09T16:47:51.249Z,13.78
2019-04-09T16:50:21.832Z,13.78
2019-04-09T16:52:53.020Z,13.76
2019-04-09T16:55:24.197Z,13.77
2019-04-09T16:58:02.588Z,13.72
2019-04-09T17:00:28.395Z,13.74
2019-04-09T17:02:59.721Z,13.68
2019-04-09T17:05:31.939Z,13.61
2019-04-09T17:08:02.714Z,13.66
2019-04-09T17:10:35.181Z,13.64
2019-04-09T17:13:06.673Z,13.64
2019-04-09T17:15:37.865Z,13.58
2019-04-09T17:18:08.659Z,13.60
2019-04-09T17:20:40.096Z,13.58
2019-04-09T17:23:10.867Z,13.59
2019-04-09T17:25:41.412Z,13.57
2019-04-09T17:28:12.285Z,13.50
2019-04-09T17:30:43.010Z,13.48
2019-04-09T17:33:17.037Z,13.46
2019-04-09T17:35:49.021Z,13.44
2019-04-09T17:38:19.830Z,13.46
2019-04-09T17:40:50.493Z,13.44
2019-04-09T17:43:21.932Z,13.40
2019-04-09T17:45:57.020Z,13.39
2019-04-09T17:48:28.388Z,13.36
2019-04-09T17:50:58.988Z,13.43
2019-04-09T17:53:33.320Z,13.42
2019-04-09T17:56:03.932Z,13.39
2019-04-09T17:58:34.633Z,13.35
2019-04-09T18:01:07.003Z,13.34
2019-04-09T18:03:37.764Z,13.29
2019-04-09T18:06:08.338Z,13.26
2019-04-09T18:08:38.993Z,13.22
2019-04-09T18:11:09.892Z,13.21
2019-04-09T18:13:40.557Z,13.21
2019-04-09T18:16:11.889Z,13.15
2019-04-09T18:18:42.539Z,13.13
2019-04-09T18:21:14.296Z,13.13
2019-04-09T18:23:44.971Z,13.10
2019-04-09T18:26:16.682Z,13.06
2019-04-09T18:28:47.423Z,13.00
2019-04-09T18:31:26.501Z,12.80
2019-04-09T18:33:50.538Z,12.65
2019-04-09T18:36:22.886Z,12.42
2019-04-09T18:38:53.494Z,12.40
2019-04-09T18:41:24.207Z,12.31
2019-04-09T18:43:58.163Z,12.27
2019-04-09T18:46:28.762Z,12.24
2019-04-09T18:48:59.419Z,12.16
2019-04-09T18:51:31.247Z,12.09
2019-04-09T18:54:03.096Z,12.09
2019-04-09T18:56:33.829Z,12.03
2019-04-09T18:59:05.321Z,11.93
2019-04-09T19:01:36.058Z,11.86
2019-04-09T19:04:14.058Z,11.89
2019-04-09T19:06:40.828Z,11.91
2019-04-09T19:09:14.959Z,11.91
2019-04-09T19:11:45.699Z,11.89
2019-04-09T19:14:16.285Z,11.85
2019-04-09T19:16:46.916Z,11.81
2019-04-09T19:19:18.412Z,11.84
2019-04-09T19:21:49.278Z,11.84
2019-04-09T19:24:20.942Z,11.84
2019-04-09T19:26:51.528Z,11.83
2019-04-09T19:29:22.494Z,11.80
2019-04-09T19:31:53.758Z,11.77
2019-04-09T19:34:25.621Z,11.77
2019-04-09T19:36:56.932Z,11.73
2019-04-09T19:39:28.167Z,11.71
2019-04-09T19:42:10.201Z,11.70
2019-04-09T19:44:31.136Z,11.67
2019-04-09T19:47:02.809Z,11.56
2019-04-09T19:49:33.465Z,11.57
2019-04-09T19:52:04.213Z,11.60
2019-04-09T19:54:35.666Z,11.63
2019-04-09T19:57:06.324Z,11.62
2019-04-09T19:59:37.029Z,11.65
2019-04-09T20:02:08.229Z,11.64
2019-04-09T20:04:38.985Z,11.58
2019-04-09T20:07:10.127Z,11.57
2019-04-09T20:09:40.776Z,11.58
2019-04-09T20:12:11.362Z,11.58
2019-04-09T20:14:42.789Z,11.56
2019-04-09T20:17:15.531Z,11.56
2019-04-09T20:19:48.296Z,11.57
2019-04-09T20:22:21.240Z,11.55
2019-04-09T20:24:53.204Z,11.54
2019-04-09T20:27:24.007Z,11.57
2019-04-09T20:29:55.381Z,11.58
2019-04-09T20:32:26.938Z,11.58
2019-04-09T20:35:06.146Z,11.56
2019-04-09T20:37:32.933Z,11.56
2019-04-09T20:40:03.625Z,11.53
2019-04-09T20:42:34.961Z,11.57
2019-04-09T20:45:06.496Z,11.58
2019-04-09T20:47:37.979Z,11.57
2019-04-09T20:50:09.450Z,11.56
2019-04-09T20:52:40.046Z,11.58
2019-04-09T20:55:15.771Z,11.54
2019-04-09T20:57:47.191Z,11.54
2019-04-09T21:00:44.898Z,11.55
2019-04-09T21:03:53.936Z,11.54
2019-04-09T21:06:35.059Z,11.48
2019-04-09T21:09:08.358Z,11.43
2019-04-09T21:11:38.936Z,11.42
2019-04-09T21:14:09.731Z,11.34
2019-04-09T21:16:40.685Z,11.33
2019-04-09T21:19:12.114Z,11.32
2019-04-09T21:21:43.539Z,11.32
2019-04-09T21:24:15.180Z,11.33
2019-04-09T21:26:46.876Z,11.34
2019-04-09T21:29:19.477Z,11.32
2019-04-09T21:31:49.804Z,11.32
2019-04-09T21:34:20.378Z,11.31
2019-04-09T21:36:53.732Z,11.34
2019-04-09T21:39:25.149Z,11.37
2019-04-09T21:41:55.832Z,11.39
2019-04-09T21:44:26.854Z,11.36
2019-04-09T21:46:58.260Z,11.38
2019-04-09T21:49:29.688Z,11.38
2019-04-09T21:52:00.294Z,11.43
2019-04-09T21:54:31.572Z,11.41
2019-04-09T21:57:03.060Z,11.44
2019-04-09T21:59:33.696Z,11.37
2019-04-09T22:02:05.102Z,11.36
2019-04-09T22:04:35.803Z,11.40
2019-04-09T22:07:08.386Z,11.40
2019-04-09T22:09:39.054Z,11.40
2019-04-09T22:12:09.658Z,11.45
2019-04-09T22:14:41.306Z,11.44
2019-04-09T22:17:14.045Z,11.46
2019-04-09T22:19:48.526Z,11.47
2019-04-09T22:22:19.214Z,11.47
2019-04-09T22:24:49.755Z,11.46
2019-04-09T22:27:20.526Z,11.46
2019-04-09T22:29:51.706Z,11.49
2019-04-09T22:32:22.322Z,11.49
2019-04-09T22:34:54.766Z,11.46
2019-04-09T22:37:26.367Z,11.47
2019-04-09T22:39:56.941Z,11.47
2019-04-09T22:42:27.623Z,11.44
2019-04-09T22:44:58.781Z,11.43
2019-04-09T22:47:31.266Z,11.43
2019-04-09T22:50:01.915Z,11.45
2019-04-09T22:52:34.374Z,11.46
2019-04-09T22:55:05.656Z,11.47
2019-04-09T22:57:36.337Z,11.45
2019-04-09T23:00:14.439Z,11.45
2019-04-09T23:02:54.374Z,11.45
2019-04-09T23:06:04.408Z,11.43
2019-04-09T23:08:36.902Z,11.44
2019-04-09T23:11:28.588Z,11.44
2019-04-09T23:13:59.794Z,11.45
2019-04-09T23:16:31.013Z,11.40
2019-04-09T23:19:01.652Z,11.41
2019-04-09T23:21:32.210Z,11.41
2019-04-09T23:24:03.769Z,11.40
2019-04-09T23:26:35.358Z,11.40
2019-04-09T23:29:06.103Z,11.39
2019-04-09T23:31:36.928Z,11.42
2019-04-09T23:34:08.074Z,11.42
2019-04-09T23:36:38.658Z,11.43
2019-04-09T23:39:10.285Z,11.40
2019-04-09T23:41:41.815Z,11.40
2019-04-09T23:44:12.593Z,11.41
2019-04-09T23:46:45.979Z,11.38
2019-04-09T23:49:17.050Z,11.36
2019-04-09T23:51:47.943Z,11.34
2019-04-09T23:54:18.560Z,11.36
2019-04-09T23:56:49.709Z,11.37
2019-04-09T23:59:20.363Z,11.36
